Time;durP1;ratioP1;P1;durP2;ratioP2;P2;SDS_P1;SDS_P2;PMS_P1;PMS_P2;Temp;Humidity;BMP_temperature;BMP_pressure;BME280_temperature;BME280_humidity;BME280_pressure;Samples;Min_cycle;Max_cycle;Signal;HPM_P1;HPM_P2
2022/05/10 00:01:21;;;;;;;10.77;4.45;;;;;;;15.47;100.00;101628.44;4902432;29;20059;-75
2022/05/10 00:04:09;;;;;;;9.52;4.65;;;;;;;15.30;100.00;101620.88;4914456;29;20032;-75
2022/05/10 00:06:55;;;;;;;14.82;4.80;;;;;;;15.32;100.00;101629.63;4902364;29;20142;-76
2022/05/10 00:09:40;;;;;;;9.48;4.90;;;;;;;15.32;100.00;101619.06;4914688;29;20044;-76
2022/05/10 00:12:27;;;;;;;8.32;4.28;;;;;;;15.26;100.00;101626.28;4902169;29;20490;-75
2022/05/10 00:15:13;;;;;;;8.40;4.40;;;;;;;15.21;100.00;101628.13;4901401;29;20132;-76
2022/05/10 00:17:59;;;;;;;8.48;4.25;;;;;;;15.20;100.00;101627.28;4902064;29;20056;-76
2022/05/10 00:20:46;;;;;;;10.00;4.72;;;;;;;15.17;100.00;101621.16;4914357;29;20116;-75
2022/05/10 00:23:32;;;;;;;8.00;4.28;;;;;;;14.92;100.00;101612.94;4901116;29;20029;-75
2022/05/10 00:26:18;;;;;;;7.05;4.10;;;;;;;15.20;100.00;101615.81;4915032;29;20103;-75
2022/05/10 00:29:04;;;;;;;9.32;4.40;;;;;;;15.48;100.00;101625.78;4901863;29;20043;-75
2022/05/10 00:31:50;;;;;;;9.68;5.03;;;;;;;15.54;100.00;101625.63;4927267;29;20068;-75
2022/05/10 00:34:36;;;;;;;8.20;4.50;;;;;;;15.50;100.00;101609.88;4901522;29;20036;-75
2022/05/10 00:37:22;;;;;;;7.03;4.50;;;;;;;15.37;100.00;101616.34;4901392;29;20024;-75
2022/05/10 00:40:09;;;;;;;8.45;4.45;;;;;;;15.54;100.00;101615.06;4902153;29;20033;-75
2022/05/10 00:43:01;;;;;;;7.65;4.18;;;;;;;15.63;100.00;101614.84;4901264;29;20029;-75
2022/05/10 00:46:08;;;;;;;9.50;4.70;;;;;;;15.51;100.00;101615.13;4900947;29;20040;-75
2022/05/10 00:49:27;;;;;;;9.27;4.95;;;;;;;15.31;100.00;101611.19;4901765;29;20037;-76
2022/05/10 00:52:34;;;;;;;8.65;4.60;;;;;;;15.33;100.00;101604.97;4900687;29;20032;-76
2022/05/10 00:55:34;;;;;;;8.95;4.32;;;;;;;15.43;100.00;101606.50;4926596;29;20362;-76
2022/05/10 00:58:41;;;;;;;9.57;3.55;;;;;;;15.56;100.00;101607.97;4900918;29;20361;-75
2022/05/10 01:01:32;;;;;;;7.57;3.90;;;;;;;15.65;100.00;101606.88;4900245;29;20489;-76
2022/05/10 01:04:30;;;;;;;3.78;2.60;;;;;;;15.43;100.00;101610.94;4900789;29;20095;-76
2022/05/10 01:07:26;;;;;;;7.10;3.03;;;;;;;15.53;100.00;101608.03;4900868;29;20476;-76
2022/05/10 01:10:23;;;;;;;6.00;2.83;;;;;;;15.32;100.00;101605.00;4900855;29;20032;-76
2022/05/10 01:13:08;;;;;;;5.28;2.92;;;;;;;15.23;100.00;101605.22;4926363;29;20025;-76
2022/05/10 01:16:07;;;;;;;9.80;2.80;;;;;;;15.25;100.00;101611.31;4900564;29;20020;-76
2022/05/10 01:18:53;;;;;;;7.82;3.03;;;;;;;15.09;100.00;101596.72;4900872;29;20033;-76
2022/05/10 01:21:39;;;;;;;7.53;2.78;;;;;;;15.39;100.00;101598.72;4900319;29;20024;-76
2022/05/10 01:25:03;;;;;;;5.15;2.70;;;;;;;15.42;100.00;101601.25;4900761;29;20458;-76
2022/05/10 01:28:03;;;;;;;5.63;2.45;;;;;;;15.09;100.00;101607.25;4900201;29;20079;-76
2022/05/10 01:30:49;;;;;;;6.90;2.40;;;;;;;15.29;100.00;101612.97;4900401;29;20040;-75
2022/05/10 01:33:51;;;;;;;6.35;2.50;;;;;;;15.47;100.00;101613.47;4900095;29;20033;-76
2022/05/10 01:36:46;;;;;;;6.25;2.80;;;;;;;15.22;100.00;101622.81;4900586;29;20142;-75
2022/05/10 01:39:40;;;;;;;5.28;2.88;;;;;;;15.22;100.00;101621.97;4900016;29;20451;-75
2022/05/10 01:42:42;;;;;;;5.95;3.40;;;;;;;15.23;100.00;101613.97;4901649;29;20036;-75
2022/05/10 01:45:38;;;;;;;8.45;3.83;;;;;;;14.83;100.00;101616.59;4899815;29;20033;-75
2022/05/10 01:48:23;;;;;;;7.22;4.00;;;;;;;14.92;100.00;101612.03;4899814;29;20123;-76
2022/05/10 01:51:18;;;;;;;6.82;4.07;;;;;;;14.97;100.00;101612.81;4899964;29;20107;-75
2022/05/10 01:54:31;;;;;;;8.85;4.70;;;;;;;14.18;100.00;101622.25;4900250;29;20111;-76
2022/05/10 01:57:18;;;;;;;9.40;5.03;;;;;;;14.71;100.00;101622.13;4900269;29;20043;-75
2022/05/10 02:00:07;;;;;;;10.75;5.07;;;;;;;14.46;100.00;101615.59;4900610;29;20101;-76
2022/05/10 02:02:56;;;;;;;9.23;4.97;;;;;;;14.18;100.00;101621.38;4925494;29;20398;-75
2022/05/10 02:05:54;;;;;;;9.50;5.38;;;;;;;14.22;100.00;101623.97;4899147;29;20032;-76
2022/05/10 02:08:44;;;;;;;9.95;5.68;;;;;;;14.11;100.00;101622.41;4899852;29;20047;-75
2022/05/10 02:11:35;;;;;;;11.57;5.45;;;;;;;14.22;100.00;101623.97;4899810;29;20039;-76
2022/05/10 02:14:27;;;;;;;10.70;5.75;;;;;;;13.99;100.00;101623.44;4899177;29;20056;-75
2022/05/10 02:17:14;;;;;;;9.05;5.45;;;;;;;14.42;100.00;101632.38;4899249;29;20020;-75
2022/05/10 02:20:24;;;;;;;11.90;5.97;;;;;;;14.32;100.00;101636.06;4899459;29;20024;-75
2022/05/10 02:23:17;;;;;;;9.40;5.93;;;;;;;14.32;100.00;101633.44;4899325;29;20028;-76
2022/05/10 02:26:18;;;;;;;15.02;5.68;;;;;;;14.11;100.00;101628.50;4899196;29;20041;-75
2022/05/10 02:29:08;;;;;;;9.68;4.93;;;;;;;14.25;100.00;101628.31;4899887;29;20024;-75
2022/05/10 02:35:23;;;;;;;15.40;5.88;;;;;;;13.74;100.00;101629.16;4898935;29;20450;-75
2022/05/10 02:38:13;;;;;;;17.75;6.45;;;;;;;14.15;100.00;101629.34;4899341;29;20032;-76
2022/05/10 02:41:09;;;;;;;12.20;5.95;;;;;;;14.18;100.00;101626.63;4924969;29;20024;-75
2022/05/10 02:44:01;;;;;;;15.25;5.80;;;;;;;14.25;100.00;101628.31;4899466;29;20365;-75
2022/05/10 02:46:47;;;;;;;13.85;6.05;;;;;;;14.25;100.00;101623.91;4898775;29;20040;-76
2022/05/10 02:49:35;;;;;;;12.95;6.47;;;;;;;14.12;100.00;101627.59;4898911;29;20048;-75
2022/05/10 02:52:20;;;;;;;11.32;5.65;;;;;;;14.08;100.00;101625.94;4898073;29;20140;-75
2022/05/10 02:55:18;;;;;;;12.93;5.88;;;;;;;13.81;100.00;101621.13;4899241;29;20039;-76
2022/05/10 02:58:17;;;;;;;8.63;4.72;;;;;;;13.87;100.00;101623.66;4911679;29;20426;-76
2022/05/10 03:01:14;;;;;;;8.38;5.28;;;;;;;13.96;100.00;101623.53;4898731;29;20068;-76
2022/05/10 03:04:03;;;;;;;9.60;4.65;;;;;;;13.78;100.00;101638.75;4898686;29;20107;-76
2022/05/10 03:06:48;;;;;;;10.57;4.78;;;;;;;13.51;100.00;101633.91;4899170;29;20024;-75
2022/05/10 03:09:34;;;;;;;14.85;6.70;;;;;;;13.86;100.00;101640.38;4898603;29;20033;-75
2022/05/10 03:12:20;;;;;;;8.48;3.90;;;;;;;14.01;100.00;101637.50;4898334;29;20038;-76
2022/05/10 03:15:07;;;;;;;8.90;4.38;;;;;;;14.18;100.00;101639.81;4897943;29;20094;-76
2022/05/10 03:17:52;;;;;;;12.07;4.30;;;;;;;13.99;100.00;101636.63;4898694;29;20079;-76
2022/05/10 03:20:38;;;;;;;8.75;4.32;;;;;;;13.91;100.00;101635.03;4898816;29;20032;-75
2022/05/10 03:23:24;;;;;;;10.90;3.88;;;;;;;14.06;100.00;101632.13;4910981;29;20072;-76
2022/05/10 03:26:15;;;;;;;8.38;3.88;;;;;;;14.36;100.00;101635.13;4898376;29;20032;-75
2022/05/10 03:29:02;;;;;;;10.88;4.28;;;;;;;14.07;100.00;101645.28;4898739;29;20426;-75
2022/05/10 03:31:48;;;;;;;8.48;4.03;;;;;;;13.91;100.00;101646.41;4898623;29;20449;-74
2022/05/10 03:37:38;;;;;;;13.52;4.38;;;;;;;14.29;100.00;101651.09;4897745;29;20025;-76
2022/05/10 03:40:24;;;;;;;9.77;4.28;;;;;;;14.17;100.00;101648.63;4911266;29;20407;-76
2022/05/10 03:43:10;;;;;;;10.40;4.10;;;;;;;14.58;100.00;101646.13;4898145;29;20411;-76
2022/05/10 03:45:57;;;;;;;12.50;4.40;;;;;;;14.48;100.00;101649.84;4897655;29;20150;-78
2022/05/10 03:48:44;;;;;;;11.90;3.80;;;;;;;14.48;100.00;101649.84;4924244;29;20316;-75
2022/05/10 03:51:30;;;;;;;12.52;4.63;;;;;;;14.68;100.00;101645.94;4897671;29;20043;-76
2022/05/10 03:54:16;;;;;;;12.98;4.35;;;;;;;14.96;100.00;101645.38;4923948;29;20442;-76
2022/05/10 03:57:02;;;;;;;11.63;4.20;;;;;;;15.10;100.00;101641.56;4898264;29;20071;-75
2022/05/10 03:59:48;;;;;;;13.65;4.65;;;;;;;14.90;100.00;101649.00;4898179;29;20171;-76
2022/05/10 04:02:33;;;;;;;9.77;4.55;;;;;;;15.10;100.00;101649.47;4898306;29;20033;-75
2022/05/10 04:05:19;;;;;;;20.33;4.60;;;;;;;15.01;100.00;101648.78;4896893;29;20120;-76
2022/05/10 04:08:08;;;;;;;13.55;5.25;;;;;;;15.14;100.00;101640.59;4898132;29;20092;-76
2022/05/10 04:10:54;;;;;;;14.77;5.35;;;;;;;15.41;100.00;101649.69;4911180;29;20044;-75
2022/05/10 04:13:42;;;;;;;12.32;6.10;;;;;;;15.41;100.00;101653.22;4898373;29;20060;-76
2022/05/10 04:16:28;;;;;;;19.30;9.40;;;;;;;15.30;100.00;101660.47;4898069;29;20024;-76
2022/05/10 04:19:14;;;;;;;21.55;7.22;;;;;;;15.51;100.00;101659.19;4897821;29;20369;-75
2022/05/10 04:21:59;;;;;;;10.43;6.00;;;;;;;15.48;100.00;101661.88;4897151;29;20107;-77
2022/05/10 04:24:45;;;;;;;14.20;5.95;;;;;;;15.45;100.00;101661.94;4898657;29;20469;-76
2022/05/10 04:27:31;;;;;;;12.18;6.07;;;;;;;15.51;100.00;101662.66;4897848;29;20029;-75
2022/05/10 04:30:18;;;;;;;16.30;5.90;;;;;;;15.81;100.00;101667.25;4898021;29;20058;-76
2022/05/10 04:33:03;;;;;;;14.77;6.00;;;;;;;16.05;100.00;101671.94;4897683;29;20100;-76
2022/05/10 04:35:52;;;;;;;16.50;6.00;;;;;;;16.07;100.00;101671.91;4898409;29;20021;-75
2022/05/10 04:38:38;;;;;;;12.35;5.97;;;;;;;16.42;100.00;101671.91;4901121;29;20515;-75
2022/05/10 04:41:29;;;;;;;27.92;13.95;;;;;;;16.37;100.00;101676.41;4902906;29;20036;-77
2022/05/10 04:44:15;;;;;;;17.77;6.63;;;;;;;16.60;100.00;101677.56;4902158;29;20046;-77
2022/05/10 04:47:01;;;;;;;12.02;5.53;;;;;;;16.93;100.00;101681.97;4927003;29;20128;-76
2022/05/10 04:49:47;;;;;;;15.65;5.25;;;;;;;16.72;100.00;101671.09;4900855;29;20087;-76
2022/05/10 04:52:33;;;;;;;12.48;6.40;;;;;;;16.90;100.00;101679.41;4901940;29;20036;-75
2022/05/10 04:55:20;;;;;;;24.77;12.15;;;;;;;16.91;100.00;101680.25;4901034;29;20035;-76
2022/05/10 04:58:06;;;;;;;21.02;6.13;;;;;;;17.09;100.00;101674.44;4902028;29;20037;-77
2022/05/10 05:00:56;;;;;;;12.73;5.13;;;;;;;17.45;100.00;101673.38;4913181;29;20025;-76
2022/05/10 05:03:47;;;;;;;9.15;5.20;;;;;;;17.28;100.00;101673.84;4900786;29;20069;-76
2022/05/10 05:06:39;;;;;;;15.80;5.05;;;;;;;16.88;100.00;101683.00;4926623;29;20509;-75
2022/05/10 05:09:25;;;;;;;12.35;5.30;;;;;;;16.99;100.00;101686.19;4900859;29;20059;-76
2022/05/10 05:12:11;;;;;;;11.38;5.13;;;;;;;16.52;100.00;101691.94;4900770;29;20497;-76
2022/05/10 05:14:57;;;;;;;12.02;5.45;;;;;;;16.72;100.00;101692.28;4900651;29;20044;-75
2022/05/10 05:17:43;;;;;;;12.43;6.70;;;;;;;16.73;100.00;101697.53;4900748;29;20336;-76
2022/05/10 05:20:32;;;;;;;15.95;7.30;;;;;;;16.18;100.00;101696.28;4901223;29;20087;-77
2022/05/10 05:23:20;;;;;;;15.60;7.88;;;;;;;16.27;100.00;101696.09;4900234;29;20044;-76
2022/05/10 05:26:06;;;;;;;12.95;6.60;;;;;;;16.27;100.00;101694.28;4901332;29;20060;-76
2022/05/10 05:28:52;;;;;;;11.18;6.38;;;;;;;16.17;100.00;101706.03;4926487;29;20029;-76
2022/05/10 05:31:38;;;;;;;12.02;6.72;;;;;;;16.35;100.00;101704.69;4899899;29;20036;-76
2022/05/10 05:34:24;;;;;;;11.82;6.72;;;;;;;16.74;100.00;101698.38;4900334;29;20032;-76
2022/05/10 05:40:16;;;;;;;19.13;8.85;;;;;;;17.25;100.00;101703.09;4899723;29;20403;-76
2022/05/10 05:43:02;;;;;;;11.38;6.53;;;;;;;17.36;100.00;101693.03;4900135;29;20081;-76
2022/05/10 05:45:50;;;;;;;17.08;8.82;;;;;;;17.55;100.00;101698.69;4899340;29;20096;-75
2022/05/10 05:48:37;;;;;;;11.23;5.60;;;;;;;17.75;100.00;101697.16;4899604;29;20059;-76
2022/05/10 05:51:23;;;;;;;11.77;4.90;;;;;;;17.93;100.00;101701.03;4901595;29;20446;-76
2022/05/10 05:54:10;;;;;;;8.70;4.57;;;;;;;17.91;100.00;101703.72;4899394;29;20042;-75
2022/05/10 05:57:14;;;;;;;11.70;5.45;;;;;;;17.69;100.00;101697.34;4900488;29;20042;-76
2022/05/10 06:00:00;;;;;;;16.90;6.07;;;;;;;18.15;100.00;101697.63;4900599;29;20029;-76
2022/05/10 06:02:46;;;;;;;10.50;5.82;;;;;;;18.87;100.00;101700.44;4904635;29;20040;-75
2022/05/10 06:05:32;;;;;;;10.65;5.88;;;;;;;18.71;100.00;101701.03;4900818;29;20028;-76
2022/05/10 06:08:19;;;;;;;11.43;5.90;;;;;;;18.79;100.00;101698.97;4899877;29;20451;-76
2022/05/10 06:11:04;;;;;;;12.27;5.35;;;;;;;18.65;100.00;101693.28;4902406;29;20024;-76
2022/05/10 06:13:52;;;;;;;16.13;5.68;;;;;;;18.80;100.00;101700.69;4901061;29;20083;-74
2022/05/10 06:16:41;;;;;;;11.80;5.13;;;;;;;19.07;100.00;101705.00;4905932;29;20139;-76
2022/05/10 06:19:28;;;;;;;17.33;7.72;;;;;;;18.78;100.00;101690.13;4907394;29;20032;-74
2022/05/10 06:22:14;;;;;;;12.38;4.70;;;;;;;18.99;100.00;101700.00;4908384;29;20048;-73
2022/05/10 06:25:00;;;;;;;8.20;4.45;;;;;;;18.90;100.00;101686.16;4913502;29;20043;-75
2022/05/10 06:27:48;;;;;;;15.73;4.45;;;;;;;19.23;100.00;101690.22;4911334;29;20048;-73
2022/05/10 06:30:34;;;;;;;14.75;4.47;;;;;;;19.71;100.00;101688.38;4910801;29;20036;-74
2022/05/10 06:33:19;;;;;;;9.63;4.32;;;;;;;19.55;100.00;101686.38;4910964;29;20043;-72
2022/05/10 06:36:05;;;;;;;6.82;4.00;;;;;;;19.30;100.00;101682.94;4907526;29;20421;-74
2022/05/10 06:38:51;;;;;;;6.03;4.00;;;;;;;19.43;100.00;101685.06;4915812;29;20052;-73
2022/05/10 06:41:37;;;;;;;12.88;4.90;;;;;;;19.64;100.00;101680.72;4909766;29;20501;-74
2022/05/10 06:44:25;;;;;;;9.18;5.07;;;;;;;19.23;100.00;101679.59;4909508;29;20095;-75
2022/05/10 06:47:10;;;;;;;12.38;5.20;;;;;;;20.16;100.00;101688.34;4909839;29;20059;-74
2022/05/10 06:49:57;;;;;;;8.50;5.20;;;;;;;19.99;100.00;101686.34;4906520;29;20032;-75
2022/05/10 06:52:43;;;;;;;9.38;5.47;;;;;;;19.91;100.00;101688.44;4904780;29;20482;-74
2022/05/10 06:55:31;;;;;;;9.73;4.90;;;;;;;19.82;100.00;101686.16;4910689;29;20480;-74
2022/05/10 06:58:17;;;;;;;7.97;4.80;;;;;;;19.68;100.00;101683.19;4910739;29;20337;-72
2022/05/10 07:01:07;;;;;;;10.25;5.50;;;;;;;19.38;100.00;101686.16;4908556;29;21428;-72
2022/05/10 07:03:53;;;;;;;8.80;5.20;;;;;;;19.38;100.00;101688.81;4907968;29;20071;-70
2022/05/10 07:06:39;;;;;;;10.23;5.00;;;;;;;19.19;100.00;101699.25;4908355;29;20131;-70
2022/05/10 07:09:24;;;;;;;8.20;4.55;;;;;;;18.64;100.00;101700.38;4908464;29;20107;-70
2022/05/10 07:12:11;;;;;;;7.25;4.68;;;;;;;18.78;100.00;101707.84;4909656;29;20035;-69
2022/05/10 07:14:57;;;;;;;12.23;5.30;;;;;;;18.38;100.00;101702.19;4908578;29;20064;-70
2022/05/10 07:17:42;;;;;;;9.02;5.30;;;;;;;18.55;100.00;101711.31;4910099;29;20058;-73
2022/05/10 07:20:28;;;;;;;9.77;5.25;;;;;;;18.07;100.00;101707.59;4912205;29;20078;-74
2022/05/10 07:23:18;;;;;;;9.43;5.68;;;;;;;18.51;100.00;101711.47;4910121;29;20039;-73
2022/05/10 07:26:05;;;;;;;10.07;5.68;;;;;;;18.70;100.00;101709.91;4911354;29;20036;-74
2022/05/10 07:28:51;;;;;;;12.90;5.40;;;;;;;18.75;100.00;101707.94;4909648;29;20035;-75
2022/05/10 07:31:37;;;;;;;9.35;5.60;;;;;;;18.53;100.00;101721.09;4911720;29;20054;-75
2022/05/10 07:34:23;;;;;;;9.88;5.20;;;;;;;18.69;100.00;101711.69;4908383;29;20035;-75
2022/05/10 07:37:08;;;;;;;12.30;5.22;;;;;;;18.69;100.00;101714.34;4912300;29;20762;-76
2022/05/10 07:39:54;;;;;;;11.00;5.57;;;;;;;18.91;100.00;101709.16;4913838;29;20035;-73
2022/05/10 07:42:40;;;;;;;19.33;10.82;;;;;;;18.75;100.00;101707.94;4909831;29;20943;-75
2022/05/10 07:45:26;;;;;;;12.18;6.47;;;;;;;18.95;100.00;101705.47;4915849;29;20043;-77
2022/05/10 07:48:12;;;;;;;10.38;5.78;;;;;;;18.89;100.00;101708.34;4913680;29;20043;-75
2022/05/10 07:50:59;;;;;;;8.25;5.60;;;;;;;18.78;100.00;101706.03;4915997;29;20028;-76
2022/05/10 07:53:45;;;;;;;10.60;5.25;;;;;;;19.51;100.00;101708.69;4911381;29;20032;-76
2022/05/10 07:56:34;;;;;;;7.78;5.25;;;;;;;19.25;100.00;101712.31;4909230;29;20020;-78
2022/05/10 07:59:20;;;;;;;8.65;5.53;;;;;;;19.53;100.00;101706.84;4911085;29;20027;-75
2022/05/10 08:02:07;;;;;;;9.43;5.75;;;;;;;19.59;100.00;101711.91;4911500;29;20036;-76
2022/05/10 08:04:52;;;;;;;7.28;5.80;;;;;;;19.27;100.00;101717.59;4908833;29;20042;-75
2022/05/10 08:07:38;;;;;;;11.48;6.63;;;;;;;19.48;100.00;101715.00;4908791;29;20052;-76
2022/05/10 08:10:24;;;;;;;13.05;6.38;;;;;;;19.56;100.00;101710.25;4910863;29;20035;-76
2022/05/10 08:13:12;;;;;;;9.52;6.72;;;;;;;19.65;100.00;101715.19;4915604;29;20043;-76
2022/05/10 08:16:00;;;;;;;9.15;5.45;;;;;;;20.10;100.00;101715.22;4910388;29;20030;-76
2022/05/10 08:18:48;;;;;;;9.30;5.57;;;;;;;20.57;100.00;101722.94;4913607;29;20385;-74
2022/05/10 08:21:34;;;;;;;9.77;5.82;;;;;;;20.82;100.00;101714.78;4911584;29;20044;-76
2022/05/10 08:24:19;;;;;;;13.98;5.88;;;;;;;20.75;100.00;101716.84;4917471;29;20111;-76
2022/05/10 08:27:05;;;;;;;10.57;5.30;;;;;;;20.96;100.00;101718.59;4916724;29;20042;-76
2022/05/10 08:29:51;;;;;;;14.88;6.03;;;;;;;20.94;100.00;101711.59;4916787;29;20032;-75
2022/05/10 08:32:37;;;;;;;10.88;5.75;;;;;;;20.80;100.00;101717.50;4918262;29;20139;-75
2022/05/10 08:35:23;;;;;;;10.82;6.50;;;;;;;20.68;100.00;101723.34;4919034;29;20513;-77
2022/05/10 08:38:09;;;;;;;9.48;6.13;;;;;;;20.74;100.00;101725.75;4926025;29;20472;-75
2022/05/10 08:41:07;;;;;;;12.05;5.75;;;;;;;21.43;100.00;101727.09;4912049;29;20032;-76
2022/05/10 08:44:01;;;;;;;8.55;5.60;;;;;;;21.49;100.00;101721.47;4920103;29;20095;-76
2022/05/10 08:46:53;;;;;;;8.82;6.10;;;;;;;21.60;100.00;101722.72;4918121;29;20028;-76
2022/05/10 08:49:50;;;;;;;12.77;6.30;;;;;;;21.68;100.00;101725.00;4919958;29;20071;-75
2022/05/10 08:52:42;;;;;;;12.18;5.68;;;;;;;22.66;100.00;101729.91;4920872;29;20075;-80
2022/05/10 08:55:30;;;;;;;8.50;5.15;;;;;;;22.46;100.00;101721.16;4920543;29;20107;-78
2022/05/10 08:58:45;;;;;;;11.52;6.18;;;;;;;22.07;100.00;101721.31;4928170;29;20040;-76
2022/05/10 09:01:36;;;;;;;12.90;6.22;;;;;;;21.23;100.00;101728.03;4918629;29;20040;-77
2022/05/10 09:04:32;;;;;;;8.57;5.90;;;;;;;21.46;100.00;101713.63;4923368;29;20024;-76
2022/05/10 09:07:42;;;;;;;8.73;5.88;;;;;;;21.73;100.00;101725.69;4915714;29;20036;-75
2022/05/10 09:10:52;;;;;;;9.57;5.70;;;;;;;21.49;100.00;101719.69;4915231;29;20357;-76
2022/05/10 09:13:41;;;;;;;10.60;6.15;;;;;;;21.27;100.00;101723.41;4914208;29;20060;-75
2022/05/10 09:16:26;;;;;;;11.82;6.10;;;;;;;21.27;100.00;101723.41;4911148;29;20036;-75
2022/05/10 09:19:12;;;;;;;13.30;7.50;;;;;;;21.89;100.00;101722.22;4919614;29;20525;-76
2022/05/10 09:22:01;;;;;;;11.82;5.80;;;;;;;22.59;98.98;101720.47;4917541;29;20032;-76
2022/05/10 09:24:51;;;;;;;13.00;6.22;;;;;;;22.32;98.48;101716.53;4922643;29;20098;-75
2022/05/10 09:27:38;;;;;;;7.93;5.97;;;;;;;22.74;98.84;101717.03;4912053;29;20119;-76
2022/05/10 09:30:28;;;;;;;15.38;10.68;;;;;;;22.69;97.46;101720.88;4915447;29;20115;-77
2022/05/10 09:36:29;;;;;;;8.40;5.50;;;;;;;22.43;95.25;101721.31;4913575;29;20049;-76
2022/05/10 09:39:33;;;;;;;10.45;5.22;;;;;;;22.49;95.25;101713.91;4911472;29;20042;-76
2022/05/10 09:42:31;;;;;;;9.52;6.03;;;;;;;22.78;92.00;101713.25;4925628;29;20127;-76
2022/05/10 09:45:23;;;;;;;9.73;6.35;;;;;;;23.38;89.85;101709.16;4911324;29;20040;-75
2022/05/10 09:48:08;;;;;;;10.65;6.55;;;;;;;22.84;93.90;101707.59;4909683;29;20068;-73
2022/05/10 09:50:54;;;;;;;14.23;6.75;;;;;;;22.76;91.77;101715.16;4909699;29;20032;-75
2022/05/10 09:53:40;;;;;;;10.85;6.28;;;;;;;22.80;87.78;101710.50;4909788;29;20644;-75
2022/05/10 09:56:34;;;;;;;8.57;5.65;;;;;;;22.94;85.38;101706.16;4930630;29;20028;-75
2022/05/10 09:59:24;;;;;;;8.77;5.63;;;;;;;23.61;83.47;101700.72;4917873;29;20273;-75
2022/05/10 10:02:10;;;;;;;9.13;5.55;;;;;;;23.42;83.88;101696.50;4917552;29;20028;-74
2022/05/10 10:04:56;;;;;;;9.05;5.47;;;;;;;23.11;82.83;101706.13;4930250;29;20035;-74
2022/05/10 10:07:54;;;;;;;14.05;5.60;;;;;;;22.92;82.65;101700.06;4917494;29;20509;-74
2022/05/10 10:10:39;;;;;;;7.90;5.50;;;;;;;22.64;89.43;101697.09;4916651;29;20448;-75
2022/05/10 10:13:36;;;;;;;14.43;6.10;;;;;;;23.17;87.88;101694.25;4919238;29;20532;-75
2022/05/10 10:16:28;;;;;;;11.23;6.00;;;;;;;22.35;92.83;101697.66;4918749;29;20035;-74
2022/05/10 10:19:26;;;;;;;9.40;5.80;;;;;;;22.13;93.16;101694.34;4919734;29;20060;-75
2022/05/10 10:22:17;;;;;;;9.73;5.32;;;;;;;22.00;91.71;101690.56;4918757;29;20052;-75
2022/05/10 10:25:17;;;;;;;7.82;4.60;;;;;;;21.74;90.27;101693.59;4919442;29;20032;-74
2022/05/10 10:28:42;;;;;;;6.50;4.03;;;;;;;21.90;88.16;101693.75;4919276;29;20043;-74
2022/05/10 10:31:33;;;;;;;8.88;4.13;;;;;;;22.40;82.58;101692.97;4908574;29;20031;-74
2022/05/10 10:34:37;;;;;;;8.32;4.60;;;;;;;22.56;85.01;101690.41;4917464;29;20350;-74
2022/05/10 10:37:32;;;;;;;6.03;4.00;;;;;;;22.07;80.90;101694.63;4917875;29;20496;-74
2022/05/10 10:40:39;;;;;;;7.30;3.50;;;;;;;22.58;80.47;101686.69;4919036;29;20036;-75
2022/05/10 10:43:36;;;;;;;6.10;4.13;;;;;;;23.00;75.73;101687.16;4919335;29;20099;-74
2022/05/10 10:46:28;;;;;;;6.28;4.18;;;;;;;21.67;85.37;101684.16;4918296;29;20135;-74
2022/05/10 10:49:21;;;;;;;9.55;4.20;;;;;;;22.27;82.51;101686.50;4919075;29;20036;-74
2022/05/10 10:52:07;;;;;;;6.88;3.97;;;;;;;22.31;82.70;101677.38;4918365;29;20112;-74
2022/05/10 10:54:53;;;;;;;8.57;4.30;;;;;;;22.29;78.70;101687.28;4917380;29;20342;-74
2022/05/10 10:58:03;;;;;;;6.07;3.33;;;;;;;22.41;79.00;101681.34;4918061;29;20119;-75
2022/05/10 11:01:02;;;;;;;5.90;3.70;;;;;;;22.30;76.16;101667.66;4918379;29;20128;-75
2022/05/10 11:04:10;;;;;;;10.25;4.00;;;;;;;22.85;71.51;101663.00;4918625;29;20043;-74
2022/05/10 11:06:55;;;;;;;7.93;3.55;;;;;;;22.91;72.26;101666.22;4931325;29;20036;-74
2022/05/10 11:09:47;;;;;;;7.47;3.90;;;;;;;22.79;73.45;101661.53;4916878;29;20100;-74
2022/05/10 11:12:47;;;;;;;5.45;3.90;;;;;;;23.34;68.33;101662.13;4919090;29;20046;-74
2022/05/10 11:15:45;;;;;;;6.82;3.60;;;;;;;23.96;66.16;101658.63;4918604;29;20051;-73
2022/05/10 11:18:30;;;;;;;7.93;3.75;;;;;;;23.01;69.06;101651.44;4918086;29;20107;-74
2022/05/10 11:21:27;;;;;;;7.53;3.80;;;;;;;23.10;66.33;101647.38;4930822;29;20115;-74
2022/05/10 11:24:36;;;;;;;5.85;3.70;;;;;;;23.48;63.62;101637.28;4918053;29;20036;-74
2022/05/10 11:28:04;;;;;;;5.32;3.33;;;;;;;23.41;59.66;101639.44;4917753;29;20028;-74
2022/05/10 11:31:18;;;;;;;6.18;3.40;;;;;;;24.15;58.46;101640.53;4918322;29;20028;-74
2022/05/10 11:34:32;;;;;;;6.80;3.30;;;;;;;23.19;58.46;101631.69;4918384;29;20034;-74
2022/05/10 11:37:28;;;;;;;5.70;3.40;;;;;;;23.26;60.20;101638.47;4867769;29;20128;-75
2022/05/10 11:40:44;;;;;;;7.65;3.45;;;;;;;23.44;58.93;101629.41;4930634;29;20043;-74
2022/05/10 11:44:01;;;;;;;5.53;3.17;;;;;;;23.87;57.43;101630.50;4930807;29;20028;-75
2022/05/10 11:46:46;;;;;;;5.88;3.13;;;;;;;23.76;56.57;101627.63;4918202;29;20091;-74
2022/05/10 11:49:54;;;;;;;5.20;2.97;;;;;;;23.14;57.28;101624.88;4922114;29;20035;-74
2022/05/10 11:53:03;;;;;;;5.63;3.25;;;;;;;22.80;59.30;101620.53;4922522;29;20043;-75
2022/05/10 11:55:54;;;;;;;4.47;3.35;;;;;;;22.97;60.98;101606.22;4934870;29;20028;-75
2022/05/10 11:58:41;;;;;;;6.55;3.75;;;;;;;23.32;61.41;101606.03;4920089;29;20365;-73
2022/05/10 12:01:56;;;;;;;7.97;3.95;;;;;;;24.06;57.47;101608.94;4920340;29;20035;-75
2022/05/10 12:04:44;;;;;;;9.40;5.03;;;;;;;23.74;57.32;101604.56;4919539;29;20039;-75
2022/05/10 12:07:35;;;;;;;4.50;2.97;;;;;;;22.95;56.26;101603.63;4921426;29;20410;-75
2022/05/10 12:10:29;;;;;;;6.55;3.30;;;;;;;23.31;57.59;101598.13;4919762;29;20099;-75
2022/05/10 12:21:19;;;;;;;6.63;3.40;;;;;;;24.02;55.47;101600.22;4926045;29;20119;-74
2022/05/10 12:22:46;;;;;;;7.32;3.65;;;;;;;23.92;57.98;101576.75;4921439;29;20465;-74
2022/05/10 12:25:53;;;;;;;15.40;9.05;;;;;;;24.32;57.91;101581.44;4920988;29;20043;-73
2022/05/10 12:28:46;;;;;;;5.22;3.42;;;;;;;24.72;57.03;101575.41;4921296;29;20032;-73
2022/05/10 12:31:34;;;;;;;13.32;3.35;;;;;;;24.27;57.94;101564.81;4921742;29;20028;-76
2022/05/10 12:34:45;;;;;;;10.90;4.03;;;;;;;24.52;59.58;101554.31;4920484;29;20177;-73
2022/05/10 12:37:48;;;;;;;9.05;3.90;;;;;;;25.20;56.49;101561.56;4921217;29;20024;-75
2022/05/10 12:40:35;;;;;;;6.00;3.95;;;;;;;23.61;59.29;101568.75;4920438;29;20032;-75
2022/05/10 12:43:40;;;;;;;7.70;3.50;;;;;;;23.46;61.39;101558.94;4920807;29;20103;-75
2022/05/10 12:46:37;;;;;;;6.03;3.72;;;;;;;23.03;65.68;101547.94;4921301;29;20431;-76
2022/05/10 12:49:34;;;;;;;10.85;3.88;;;;;;;23.78;65.75;101547.25;4921277;29;20338;-75
2022/05/10 12:52:43;;;;;;;9.52;4.07;;;;;;;24.26;64.22;101539.81;4920516;29;20425;-74
2022/05/10 12:55:35;;;;;;;4.88;3.30;;;;;;;24.52;57.77;101544.47;4921797;29;20095;-75
2022/05/10 12:58:28;;;;;;;7.43;3.85;;;;;;;24.38;61.59;101539.06;4920596;29;20055;-74
2022/05/10 13:01:16;;;;;;;7.75;3.78;;;;;;;24.03;64.25;101542.19;4921014;29;20035;-75
2022/05/10 13:04:17;;;;;;;7.55;3.60;;;;;;;23.91;65.55;101533.03;4920099;29;20032;-75
2022/05/10 13:07:14;;;;;;;8.15;3.80;;;;;;;24.22;64.50;101530.25;4919743;29;20111;-76
2022/05/10 13:10:08;;;;;;;11.55;4.18;;;;;;;24.25;63.51;101516.69;4920582;29;20031;-74
2022/05/10 13:13:01;;;;;;;7.60;4.40;;;;;;;23.30;64.57;101518.81;4920893;29;20338;-74
2022/05/10 13:15:50;;;;;;;9.23;3.90;;;;;;;24.04;64.89;101527.81;4919352;29;20028;-74
2022/05/10 13:18:41;;;;;;;9.27;4.10;;;;;;;23.86;65.73;101518.19;4920096;29;20032;-74
2022/05/10 13:21:29;;;;;;;6.50;4.20;;;;;;;24.13;67.33;101517.44;4920043;29;20036;-75
2022/05/10 13:24:18;;;;;;;11.23;4.25;;;;;;;23.56;73.16;101507.50;4920448;29;20039;-75
2022/05/10 13:27:04;;;;;;;11.18;4.38;;;;;;;24.01;72.79;101504.78;4922198;29;20433;-75